sensor_id;sensor_type;location;lat;lon;timestamp;P1;durP1;ratioP1;P2;durP2;ratioP2
74347;SDS011;62778;50.406;10.008;2023-02-28T00:00:38;6.57;;;2.30;;
74347;SDS011;62778;50.406;10.008;2023-02-28T00:01:33;5.33;;;2.43;;
74347;SDS011;62778;50.406;10.008;2023-02-28T00:02:29;5.07;;;2.13;;
74347;SDS011;62778;50.406;10.008;2023-02-28T00:03:24;5.78;;;2.60;;
74347;SDS011;62778;50.406;10.008;2023-02-28T00:04:19;4.57;;;1.63;;
74347;SDS011;62778;50.406;10.008;2023-02-28T00:05:16;5.53;;;2.50;;
74347;SDS011;62778;50.406;10.008;2023-02-28T00:06:13;5.07;;;2.13;;
74347;SDS011;62778;50.406;10.008;2023-02-28T00:07:08;5.07;;;2.27;;
74347;SDS011;62778;50.406;10.008;2023-02-28T00:08:04;5.45;;;2.30;;
74347;SDS011;62778;50.406;10.008;2023-02-28T00:09:00;5.47;;;2.60;;
74347;SDS011;62778;50.406;10.008;2023-02-28T00:09:55;6.37;;;2.93;;
74347;SDS011;62778;50.406;10.008;2023-02-28T00:10:50;6.80;;;2.33;;
74347;SDS011;62778;50.406;10.008;2023-02-28T00:11:46;5.70;;;2.70;;
74347;SDS011;62778;50.406;10.008;2023-02-28T00:12:41;5.97;;;2.97;;
74347;SDS011;62778;50.406;10.008;2023-02-28T00:13:37;5.15;;;2.50;;
74347;SDS011;62778;50.406;10.008;2023-02-28T00:14:35;6.18;;;2.97;;
74347;SDS011;62778;50.406;10.008;2023-02-28T00:15:30;6.93;;;2.70;;
74347;SDS011;62778;50.406;10.008;2023-02-28T00:16:26;5.40;;;2.67;;
74347;SDS011;62778;50.406;10.008;2023-02-28T00:17:22;6.27;;;2.80;;
74347;SDS011;62778;50.406;10.008;2023-02-28T00:18:17;5.30;;;2.80;;
74347;SDS011;62778;50.406;10.008;2023-02-28T00:19:12;4.80;;;2.30;;
74347;SDS011;62778;50.406;10.008;2023-02-28T00:20:08;5.83;;;2.60;;
74347;SDS011;62778;50.406;10.008;2023-02-28T00:21:05;5.53;;;2.70;;
74347;SDS011;62778;50.406;10.008;2023-02-28T00:22:01;6.30;;;2.60;;
74347;SDS011;62778;50.406;10.008;2023-02-28T00:22:59;5.68;;;2.53;;
74347;SDS011;62778;50.406;10.008;2023-02-28T00:23:54;6.67;;;2.57;;
74347;SDS011;62778;50.406;10.008;2023-02-28T00:24:50;6.30;;;2.70;;
74347;SDS011;62778;50.406;10.008;2023-02-28T00:25:45;4.60;;;2.10;;
74347;SDS011;62778;50.406;10.008;2023-02-28T00:26:40;4.75;;;2.25;;
74347;SDS011;62778;50.406;10.008;2023-02-28T00:27:36;5.10;;;2.40;;
74347;SDS011;62778;50.406;10.008;2023-02-28T00:28:32;6.78;;;2.28;;
74347;SDS011;62778;50.406;10.008;2023-02-28T00:29:28;6.30;;;2.50;;
74347;SDS011;62778;50.406;10.008;2023-02-28T00:30:23;6.20;;;2.60;;
74347;SDS011;62778;50.406;10.008;2023-02-28T00:31:18;5.18;;;2.50;;
74347;SDS011;62778;50.406;10.008;2023-02-28T00:32:14;5.93;;;2.67;;
74347;SDS011;62778;50.406;10.008;2023-02-28T00:33:09;4.97;;;2.60;;
74347;SDS011;62778;50.406;10.008;2023-02-28T00:34:04;6.30;;;2.23;;
74347;SDS011;62778;50.406;10.008;2023-02-28T00:35:00;5.13;;;2.40;;
74347;SDS011;62778;50.406;10.008;2023-02-28T00:36:05;6.23;;;2.37;;
74347;SDS011;62778;50.406;10.008;2023-02-28T00:37:02;6.60;;;2.53;;
74347;SDS011;62778;50.406;10.008;2023-02-28T00:37:57;5.90;;;2.30;;
74347;SDS011;62778;50.406;10.008;2023-02-28T00:38:52;5.70;;;2.50;;
74347;SDS011;62778;50.406;10.008;2023-02-28T00:39:47;6.97;;;2.60;;
74347;SDS011;62778;50.406;10.008;2023-02-28T00:40:43;6.00;;;2.63;;
74347;SDS011;62778;50.406;10.008;2023-02-28T00:41:38;5.23;;;2.50;;
74347;SDS011;62778;50.406;10.008;2023-02-28T00:42:34;5.03;;;2.50;;
74347;SDS011;62778;50.406;10.008;2023-02-28T00:43:30;5.10;;;2.40;;
74347;SDS011;62778;50.406;10.008;2023-02-28T00:44:26;5.00;;;2.33;;
74347;SDS011;62778;50.406;10.008;2023-02-28T00:45:22;6.30;;;2.37;;
74347;SDS011;62778;50.406;10.008;2023-02-28T00:46:17;5.73;;;2.50;;
74347;SDS011;62778;50.406;10.008;2023-02-28T00:47:12;5.10;;;2.20;;
74347;SDS011;62778;50.406;10.008;2023-02-28T00:48:08;4.90;;;2.40;;
74347;SDS011;62778;50.406;10.008;2023-02-28T00:49:03;5.10;;;2.10;;
74347;SDS011;62778;50.406;10.008;2023-02-28T00:49:58;5.93;;;2.63;;
74347;SDS011;62778;50.406;10.008;2023-02-28T00:50:54;4.93;;;2.25;;
74347;SDS011;62778;50.406;10.008;2023-02-28T00:51:49;5.10;;;2.33;;
74347;SDS011;62778;50.406;10.008;2023-02-28T00:52:45;5.07;;;2.37;;
74347;SDS011;62778;50.406;10.008;2023-02-28T00:53:41;5.88;;;2.40;;
74347;SDS011;62778;50.406;10.008;2023-02-28T00:54:36;5.03;;;2.30;;
74347;SDS011;62778;50.406;10.008;2023-02-28T00:55:31;5.45;;;2.38;;
74347;SDS011;62778;50.406;10.008;2023-02-28T00:56:27;5.17;;;2.20;;
74347;SDS011;62778;50.406;10.008;2023-02-28T00:57:22;4.97;;;2.10;;
74347;SDS011;62778;50.406;10.008;2023-02-28T00:58:17;5.40;;;2.33;;
74347;SDS011;62778;50.406;10.008;2023-02-28T00:59:13;4.95;;;2.40;;
74347;SDS011;62778;50.406;10.008;2023-02-28T01:00:09;5.05;;;2.08;;
74347;SDS011;62778;50.406;10.008;2023-02-28T01:01:06;5.53;;;2.20;;
74347;SDS011;62778;50.406;10.008;2023-02-28T01:02:01;5.32;;;2.25;;
74347;SDS011;62778;50.406;10.008;2023-02-28T01:02:56;5.57;;;2.33;;
74347;SDS011;62778;50.406;10.008;2023-02-28T01:03:52;5.97;;;2.07;;
74347;SDS011;62778;50.406;10.008;2023-02-28T01:04:47;4.93;;;2.28;;
74347;SDS011;62778;50.406;10.008;2023-02-28T01:05:42;6.37;;;1.90;;
74347;SDS011;62778;50.406;10.008;2023-02-28T01:06:38;4.70;;;2.10;;
74347;SDS011;62778;50.406;10.008;2023-02-28T01:07:33;5.53;;;2.28;;
74347;SDS011;62778;50.406;10.008;2023-02-28T01:08:29;5.03;;;1.90;;
74347;SDS011;62778;50.406;10.008;2023-02-28T01:09:24;5.20;;;2.10;;
74347;SDS011;62778;50.406;10.008;2023-02-28T01:10:19;6.80;;;2.87;;
74347;SDS011;62778;50.406;10.008;2023-02-28T01:11:16;4.80;;;2.17;;
74347;SDS011;62778;50.406;10.008;2023-02-28T01:12:12;5.95;;;2.55;;
74347;SDS011;62778;50.406;10.008;2023-02-28T01:13:07;4.70;;;1.90;;
74347;SDS011;62778;50.406;10.008;2023-02-28T01:14:03;5.20;;;2.30;;
74347;SDS011;62778;50.406;10.008;2023-02-28T01:14:58;5.38;;;2.08;;
74347;SDS011;62778;50.406;10.008;2023-02-28T01:15:55;6.17;;;2.90;;
74347;SDS011;62778;50.406;10.008;2023-02-28T01:16:50;4.68;;;2.20;;
74347;SDS011;62778;50.406;10.008;2023-02-28T01:17:46;5.60;;;2.30;;
74347;SDS011;62778;50.406;10.008;2023-02-28T01:18:42;5.70;;;2.20;;
74347;SDS011;62778;50.406;10.008;2023-02-28T01:19:37;5.27;;;2.23;;
74347;SDS011;62778;50.406;10.008;2023-02-28T01:20:32;5.40;;;2.10;;
74347;SDS011;62778;50.406;10.008;2023-02-28T01:21:28;5.63;;;2.40;;
74347;SDS011;62778;50.406;10.008;2023-02-28T01:22:24;5.00;;;2.22;;
74347;SDS011;62778;50.406;10.008;2023-02-28T01:23:20;5.67;;;2.30;;
74347;SDS011;62778;50.406;10.008;2023-02-28T01:24:17;4.90;;;2.10;;
74347;SDS011;62778;50.406;10.008;2023-02-28T01:25:12;6.07;;;2.40;;
74347;SDS011;62778;50.406;10.008;2023-02-28T01:26:09;4.33;;;1.90;;
74347;SDS011;62778;50.406;10.008;2023-02-28T01:27:06;4.90;;;2.20;;
74347;SDS011;62778;50.406;10.008;2023-02-28T01:28:01;5.00;;;2.03;;
74347;SDS011;62778;50.406;10.008;2023-02-28T01:28:57;5.18;;;2.20;;
74347;SDS011;62778;50.406;10.008;2023-02-28T01:29:52;4.73;;;2.00;;
74347;SDS011;62778;50.406;10.008;2023-02-28T01:30:50;5.38;;;2.20;;
74347;SDS011;62778;50.406;10.008;2023-02-28T01:31:46;5.93;;;2.00;;
74347;SDS011;62778;50.406;10.008;2023-02-28T01:32:41;4.75;;;2.05;;
74347;SDS011;62778;50.406;10.008;2023-02-28T01:33:36;5.80;;;2.20;;
74347;SDS011;62778;50.406;10.008;2023-02-28T01:34:33;5.55;;;2.15;;
74347;SDS011;62778;50.406;10.008;2023-02-28T01:35:28;4.83;;;2.00;;
74347;SDS011;62778;50.406;10.008;2023-02-28T01:36:23;5.37;;;2.20;;
74347;SDS011;62778;50.406;10.008;2023-02-28T01:37:19;4.53;;;2.03;;
74347;SDS011;62778;50.406;10.008;2023-02-28T01:38:14;5.00;;;2.00;;
74347;SDS011;62778;50.406;10.008;2023-02-28T01:39:10;5.03;;;1.83;;
74347;SDS011;62778;50.406;10.008;2023-02-28T01:40:05;5.00;;;2.27;;
74347;SDS011;62778;50.406;10.008;2023-02-28T01:41:01;4.55;;;1.90;;
74347;SDS011;62778;50.406;10.008;2023-02-28T01:41:56;4.75;;;2.00;;
74347;SDS011;62778;50.406;10.008;2023-02-28T01:42:52;5.33;;;2.20;;
74347;SDS011;62778;50.406;10.008;2023-02-28T01:46:01;4.88;;;2.00;;
74347;SDS011;62778;50.406;10.008;2023-02-28T01:46:57;5.30;;;2.00;;
74347;SDS011;62778;50.406;10.008;2023-02-28T01:47:54;5.90;;;2.33;;
74347;SDS011;62778;50.406;10.008;2023-02-28T01:49:01;5.10;;;2.40;;
74347;SDS011;62778;50.406;10.008;2023-02-28T01:50:00;5.43;;;2.50;;
74347;SDS011;62778;50.406;10.008;2023-02-28T01:50:59;5.10;;;2.47;;
74347;SDS011;62778;50.406;10.008;2023-02-28T01:51:58;5.70;;;2.80;;
74347;SDS011;62778;50.406;10.008;2023-02-28T01:52:54;5.73;;;2.73;;
74347;SDS011;62778;50.406;10.008;2023-02-28T01:53:52;6.10;;;2.78;;
74347;SDS011;62778;50.406;10.008;2023-02-28T01:54:55;6.85;;;3.28;;
74347;SDS011;62778;50.406;10.008;2023-02-28T01:55:51;6.10;;;2.97;;
74347;SDS011;62778;50.406;10.008;2023-02-28T01:56:48;8.00;;;3.08;;
74347;SDS011;62778;50.406;10.008;2023-02-28T01:57:48;5.70;;;2.50;;
74347;SDS011;62778;50.406;10.008;2023-02-28T01:58:46;6.30;;;3.13;;
74347;SDS011;62778;50.406;10.008;2023-02-28T01:59:48;7.00;;;2.90;;
74347;SDS011;62778;50.406;10.008;2023-02-28T02:00:44;6.13;;;2.80;;
74347;SDS011;62778;50.406;10.008;2023-02-28T02:01:40;6.07;;;2.97;;
74347;SDS011;62778;50.406;10.008;2023-02-28T02:02:35;5.77;;;2.60;;
74347;SDS011;62778;50.406;10.008;2023-02-28T02:03:31;7.10;;;3.15;;
74347;SDS011;62778;50.406;10.008;2023-02-28T02:04:27;5.00;;;2.10;;
74347;SDS011;62778;50.406;10.008;2023-02-28T02:05:34;5.68;;;2.28;;
74347;SDS011;62778;50.406;10.008;2023-02-28T02:06:40;4.93;;;2.50;;
74347;SDS011;62778;50.406;10.008;2023-02-28T02:07:38;6.13;;;3.20;;
74347;SDS011;62778;50.406;10.008;2023-02-28T02:08:35;6.50;;;2.55;;
74347;SDS011;62778;50.406;10.008;2023-02-28T02:09:31;6.28;;;3.00;;
74347;SDS011;62778;50.406;10.008;2023-02-28T02:10:29;5.30;;;2.70;;
74347;SDS011;62778;50.406;10.008;2023-02-28T02:11:28;6.53;;;3.10;;
74347;SDS011;62778;50.406;10.008;2023-02-28T02:12:41;5.70;;;2.83;;
74347;SDS011;62778;50.406;10.008;2023-02-28T02:17:28;4.82;;;2.28;;
74347;SDS011;62778;50.406;10.008;2023-02-28T02:24:57;4.78;;;2.20;;
74347;SDS011;62778;50.406;10.008;2023-02-28T02:27:20;4.88;;;1.90;;
74347;SDS011;62778;50.406;10.008;2023-02-28T02:28:38;6.43;;;2.40;;
74347;SDS011;62778;50.406;10.008;2023-02-28T02:38:32;5.03;;;2.10;;
74347;SDS011;62778;50.406;10.008;2023-02-28T02:39:52;4.80;;;2.10;;
74347;SDS011;62778;50.406;10.008;2023-02-28T02:40:58;5.43;;;2.40;;
74347;SDS011;62778;50.406;10.008;2023-02-28T02:42:15;5.10;;;2.30;;
74347;SDS011;62778;50.406;10.008;2023-02-28T02:44:13;5.38;;;2.40;;
74347;SDS011;62778;50.406;10.008;2023-02-28T02:45:27;5.22;;;2.30;;
74347;SDS011;62778;50.406;10.008;2023-02-28T02:46:37;6.35;;;2.70;;
74347;SDS011;62778;50.406;10.008;2023-02-28T02:47:34;5.72;;;2.17;;
74347;SDS011;62778;50.406;10.008;2023-02-28T02:48:31;7.13;;;2.15;;
74347;SDS011;62778;50.406;10.008;2023-02-28T02:49:30;5.85;;;2.20;;
74347;SDS011;62778;50.406;10.008;2023-02-28T02:50:29;5.72;;;2.40;;
74347;SDS011;62778;50.406;10.008;2023-02-28T02:51:26;4.97;;;2.27;;
74347;SDS011;62778;50.406;10.008;2023-02-28T02:52:23;5.30;;;2.33;;
74347;SDS011;62778;50.406;10.008;2023-02-28T02:53:24;5.22;;;2.28;;
74347;SDS011;62778;50.406;10.008;2023-02-28T02:54:25;6.03;;;2.40;;
74347;SDS011;62778;50.406;10.008;2023-02-28T02:55:23;5.28;;;2.20;;
74347;SDS011;62778;50.406;10.008;2023-02-28T02:56:20;5.45;;;2.30;;
74347;SDS011;62778;50.406;10.008;2023-02-28T02:58:52;4.80;;;2.10;;
74347;SDS011;62778;50.406;10.008;2023-02-28T02:59:50;4.70;;;2.15;;
74347;SDS011;62778;50.406;10.008;2023-02-28T03:00:50;6.07;;;2.22;;
74347;SDS011;62778;50.406;10.008;2023-02-28T03:01:52;5.43;;;2.20;;
74347;SDS011;62778;50.406;10.008;2023-02-28T03:02:48;5.53;;;2.40;;
74347;SDS011;62778;50.406;10.008;2023-02-28T03:03:45;5.38;;;2.20;;
74347;SDS011;62778;50.406;10.008;2023-02-28T03:04:45;6.23;;;2.20;;
74347;SDS011;62778;50.406;10.008;2023-02-28T03:05:48;6.50;;;2.38;;
74347;SDS011;62778;50.406;10.008;2023-02-28T03:06:45;5.25;;;2.00;;
74347;SDS011;62778;50.406;10.008;2023-02-28T03:07:40;5.53;;;2.20;;
74347;SDS011;62778;50.406;10.008;2023-02-28T03:08:36;5.68;;;2.00;;
74347;SDS011;62778;50.406;10.008;2023-02-28T03:09:33;5.60;;;2.40;;
74347;SDS011;62778;50.406;10.008;2023-02-28T03:10:40;5.47;;;2.10;;
74347;SDS011;62778;50.406;10.008;2023-02-28T03:11:41;4.90;;;1.75;;
74347;SDS011;62778;50.406;10.008;2023-02-28T03:12:40;5.05;;;2.22;;
74347;SDS011;62778;50.406;10.008;2023-02-28T03:13:39;5.45;;;2.13;;
74347;SDS011;62778;50.406;10.008;2023-02-28T03:14:56;5.05;;;2.08;;
74347;SDS011;62778;50.406;10.008;2023-02-28T03:18:26;5.55;;;2.20;;
74347;SDS011;62778;50.406;10.008;2023-02-28T03:21:09;4.72;;;1.80;;
74347;SDS011;62778;50.406;10.008;2023-02-28T03:23:19;5.35;;;2.33;;
74347;SDS011;62778;50.406;10.008;2023-02-28T03:24:32;6.28;;;2.42;;
74347;SDS011;62778;50.406;10.008;2023-02-28T03:25:37;5.57;;;1.92;;
74347;SDS011;62778;50.406;10.008;2023-02-28T03:26:39;5.13;;;1.77;;
74347;SDS011;62778;50.406;10.008;2023-02-28T03:27:54;5.03;;;1.65;;
74347;SDS011;62778;50.406;10.008;2023-02-28T03:30:04;4.97;;;2.08;;
74347;SDS011;62778;50.406;10.008;2023-02-28T03:31:10;5.67;;;2.40;;
74347;SDS011;62778;50.406;10.008;2023-02-28T03:32:12;5.05;;;2.03;;
74347;SDS011;62778;50.406;10.008;2023-02-28T03:33:20;5.63;;;2.25;;
74347;SDS011;62778;50.406;10.008;2023-02-28T03:34:25;5.28;;;1.95;;
74347;SDS011;62778;50.406;10.008;2023-02-28T03:35:24;4.60;;;2.00;;
74347;SDS011;62778;50.406;10.008;2023-02-28T03:36:29;4.95;;;2.00;;
74347;SDS011;62778;50.406;10.008;2023-02-28T03:37:25;5.60;;;2.05;;
74347;SDS011;62778;50.406;10.008;2023-02-28T03:38:25;5.93;;;2.50;;
74347;SDS011;62778;50.406;10.008;2023-02-28T03:39:27;5.07;;;1.95;;
74347;SDS011;62778;50.406;10.008;2023-02-28T03:40:27;5.05;;;1.80;;
74347;SDS011;62778;50.406;10.008;2023-02-28T03:41:26;5.33;;;2.30;;
74347;SDS011;62778;50.406;10.008;2023-02-28T03:42:34;5.10;;;2.17;;
74347;SDS011;62778;50.406;10.008;2023-02-28T03:43:32;5.82;;;2.03;;
74347;SDS011;62778;50.406;10.008;2023-02-28T03:44:30;5.10;;;2.17;;
74347;SDS011;62778;50.406;10.008;2023-02-28T03:45:29;6.20;;;2.40;;
74347;SDS011;62778;50.406;10.008;2023-02-28T03:46:28;5.38;;;2.05;;
74347;SDS011;62778;50.406;10.008;2023-02-28T03:47:28;5.68;;;2.20;;
74347;SDS011;62778;50.406;10.008;2023-02-28T03:48:29;5.43;;;2.03;;
74347;SDS011;62778;50.406;10.008;2023-02-28T03:49:34;5.07;;;1.88;;
74347;SDS011;62778;50.406;10.008;2023-02-28T03:50:38;5.00;;;2.13;;
74347;SDS011;62778;50.406;10.008;2023-02-28T03:51:35;5.87;;;2.50;;
74347;SDS011;62778;50.406;10.008;2023-02-28T03:52:31;6.18;;;2.30;;
74347;SDS011;62778;50.406;10.008;2023-02-28T03:53:34;6.05;;;2.17;;
74347;SDS011;62778;50.406;10.008;2023-02-28T03:54:32;4.75;;;1.92;;
74347;SDS011;62778;50.406;10.008;2023-02-28T03:55:30;4.97;;;2.22;;
74347;SDS011;62778;50.406;10.008;2023-02-28T03:56:40;4.72;;;1.80;;
74347;SDS011;62778;50.406;10.008;2023-02-28T03:59:10;5.28;;;1.85;;
74347;SDS011;62778;50.406;10.008;2023-02-28T04:00:12;5.00;;;1.90;;
74347;SDS011;62778;50.406;10.008;2023-02-28T04:01:27;5.70;;;2.30;;
74347;SDS011;62778;50.406;10.008;2023-02-28T04:02:28;5.20;;;2.03;;
74347;SDS011;62778;50.406;10.008;2023-02-28T04:03:23;5.17;;;1.90;;
74347;SDS011;62778;50.406;10.008;2023-02-28T04:04:18;5.32;;;1.92;;
74347;SDS011;62778;50.406;10.008;2023-02-28T04:05:14;4.55;;;1.77;;
74347;SDS011;62778;50.406;10.008;2023-02-28T04:06:13;5.83;;;2.03;;
74347;SDS011;62778;50.406;10.008;2023-02-28T04:07:11;5.22;;;1.65;;
74347;SDS011;62778;50.406;10.008;2023-02-28T04:08:07;5.97;;;2.40;;
74347;SDS011;62778;50.406;10.008;2023-02-28T04:09:03;5.05;;;2.10;;
74347;SDS011;62778;50.406;10.008;2023-02-28T04:10:00;5.07;;;1.90;;
74347;SDS011;62778;50.406;10.008;2023-02-28T04:10:57;5.37;;;2.10;;
74347;SDS011;62778;50.406;10.008;2023-02-28T04:12:03;5.13;;;2.10;;
74347;SDS011;62778;50.406;10.008;2023-02-28T04:12:59;4.63;;;1.83;;
74347;SDS011;62778;50.406;10.008;2023-02-28T04:13:54;4.60;;;1.52;;
74347;SDS011;62778;50.406;10.008;2023-02-28T04:14:49;4.47;;;1.55;;
74347;SDS011;62778;50.406;10.008;2023-02-28T04:15:45;5.37;;;1.60;;
74347;SDS011;62778;50.406;10.008;2023-02-28T04:16:41;5.93;;;1.77;;
74347;SDS011;62778;50.406;10.008;2023-02-28T04:17:37;5.38;;;1.73;;
74347;SDS011;62778;50.406;10.008;2023-02-28T04:18:32;4.90;;;1.80;;
74347;SDS011;62778;50.406;10.008;2023-02-28T04:19:30;4.95;;;1.70;;
74347;SDS011;62778;50.406;10.008;2023-02-28T04:20:25;5.50;;;2.10;;
74347;SDS011;62778;50.406;10.008;2023-02-28T04:21:21;5.03;;;1.38;;
74347;SDS011;62778;50.406;10.008;2023-02-28T04:22:17;4.70;;;1.87;;
74347;SDS011;62778;50.406;10.008;2023-02-28T04:23:14;4.90;;;1.77;;
74347;SDS011;62778;50.406;10.008;2023-02-28T04:24:11;5.00;;;1.95;;
74347;SDS011;62778;50.406;10.008;2023-02-28T04:25:11;4.78;;;1.90;;
74347;SDS011;62778;50.406;10.008;2023-02-28T04:26:06;4.43;;;1.70;;
74347;SDS011;62778;50.406;10.008;2023-02-28T04:27:01;4.73;;;1.80;;
74347;SDS011;62778;50.406;10.008;2023-02-28T04:27:57;5.27;;;2.00;;
74347;SDS011;62778;50.406;10.008;2023-02-28T04:28:52;5.57;;;1.80;;
74347;SDS011;62778;50.406;10.008;2023-02-28T04:29:47;5.70;;;2.30;;
74347;SDS011;62778;50.406;10.008;2023-02-28T04:30:43;4.90;;;2.00;;
74347;SDS011;62778;50.406;10.008;2023-02-28T04:31:38;4.97;;;1.80;;
74347;SDS011;62778;50.406;10.008;2023-02-28T04:32:34;5.30;;;2.00;;
74347;SDS011;62778;50.406;10.008;2023-02-28T04:33:29;4.87;;;1.53;;
74347;SDS011;62778;50.406;10.008;2023-02-28T04:34:26;4.97;;;1.88;;
74347;SDS011;62778;50.406;10.008;2023-02-28T04:35:22;4.60;;;1.80;;
74347;SDS011;62778;50.406;10.008;2023-02-28T04:36:17;5.00;;;1.90;;
74347;SDS011;62778;50.406;10.008;2023-02-28T04:37:12;5.73;;;1.80;;
74347;SDS011;62778;50.406;10.008;2023-02-28T04:38:08;6.13;;;2.28;;
74347;SDS011;62778;50.406;10.008;2023-02-28T04:39:03;5.72;;;2.50;;
74347;SDS011;62778;50.406;10.008;2023-02-28T04:39:59;5.53;;;2.07;;
74347;SDS011;62778;50.406;10.008;2023-02-28T04:40:56;4.37;;;1.63;;
74347;SDS011;62778;50.406;10.008;2023-02-28T04:41:52;5.70;;;1.88;;
74347;SDS011;62778;50.406;10.008;2023-02-28T04:42:47;5.50;;;2.00;;
74347;SDS011;62778;50.406;10.008;2023-02-28T04:43:42;5.28;;;2.20;;
74347;SDS011;62778;50.406;10.008;2023-02-28T04:44:38;6.13;;;2.00;;
74347;SDS011;62778;50.406;10.008;2023-02-28T04:45:34;5.37;;;1.93;;
74347;SDS011;62778;50.406;10.008;2023-02-28T04:46:32;7.72;;;2.08;;
74347;SDS011;62778;50.406;10.008;2023-02-28T04:47:27;5.43;;;1.75;;
74347;SDS011;62778;50.406;10.008;2023-02-28T04:48:23;4.93;;;2.10;;
74347;SDS011;62778;50.406;10.008;2023-02-28T04:49:19;7.85;;;1.90;;
74347;SDS011;62778;50.406;10.008;2023-02-28T04:50:14;5.20;;;2.10;;
74347;SDS011;62778;50.406;10.008;2023-02-28T04:51:10;4.53;;;1.65;;
74347;SDS011;62778;50.406;10.008;2023-02-28T04:52:07;5.17;;;1.97;;
74347;SDS011;62778;50.406;10.008;2023-02-28T04:53:03;5.15;;;1.95;;
74347;SDS011;62778;50.406;10.008;2023-02-28T04:53:58;5.67;;;2.27;;
74347;SDS011;62778;50.406;10.008;2023-02-28T04:54:53;4.90;;;1.77;;
74347;SDS011;62778;50.406;10.008;2023-02-28T04:55:49;5.07;;;2.30;;
74347;SDS011;62778;50.406;10.008;2023-02-28T04:56:44;5.03;;;2.20;;
74347;SDS011;62778;50.406;10.008;2023-02-28T04:57:39;9.07;;;3.07;;
74347;SDS011;62778;50.406;10.008;2023-02-28T04:58:37;5.28;;;2.30;;
74347;SDS011;62778;50.406;10.008;2023-02-28T04:59:32;4.57;;;2.03;;
74347;SDS011;62778;50.406;10.008;2023-02-28T05:00:28;5.10;;;1.90;;
74347;SDS011;62778;50.406;10.008;2023-02-28T05:01:27;7.15;;;2.17;;
74347;SDS011;62778;50.406;10.008;2023-02-28T05:02:24;5.65;;;2.20;;
74347;SDS011;62778;50.406;10.008;2023-02-28T05:03:20;5.60;;;1.97;;
74347;SDS011;62778;50.406;10.008;2023-02-28T05:04:17;7.07;;;2.28;;
74347;SDS011;62778;50.406;10.008;2023-02-28T05:05:12;4.87;;;2.00;;
74347;SDS011;62778;50.406;10.008;2023-02-28T05:06:12;6.93;;;2.15;;
74347;SDS011;62778;50.406;10.008;2023-02-28T05:07:08;4.80;;;1.80;;
74347;SDS011;62778;50.406;10.008;2023-02-28T05:08:04;4.65;;;1.40;;
74347;SDS011;62778;50.406;10.008;2023-02-28T05:09:00;4.80;;;1.63;;
74347;SDS011;62778;50.406;10.008;2023-02-28T05:09:55;6.00;;;2.40;;
74347;SDS011;62778;50.406;10.008;2023-02-28T05:10:51;4.68;;;1.95;;
74347;SDS011;62778;50.406;10.008;2023-02-28T05:11:46;7.33;;;2.00;;
74347;SDS011;62778;50.406;10.008;2023-02-28T05:12:42;5.33;;;2.03;;
74347;SDS011;62778;50.406;10.008;2023-02-28T05:13:37;6.93;;;2.23;;
74347;SDS011;62778;50.406;10.008;2023-02-28T05:14:32;5.20;;;2.10;;
74347;SDS011;62778;50.406;10.008;2023-02-28T05:15:28;5.03;;;2.22;;
74347;SDS011;62778;50.406;10.008;2023-02-28T05:16:23;6.77;;;2.27;;
74347;SDS011;62778;50.406;10.008;2023-02-28T05:17:18;4.77;;;2.00;;
74347;SDS011;62778;50.406;10.008;2023-02-28T05:18:14;5.30;;;2.40;;
74347;SDS011;62778;50.406;10.008;2023-02-28T05:19:09;6.20;;;2.53;;
74347;SDS011;62778;50.406;10.008;2023-02-28T05:20:05;6.00;;;2.38;;
74347;SDS011;62778;50.406;10.008;2023-02-28T05:21:01;4.90;;;1.75;;
74347;SDS011;62778;50.406;10.008;2023-02-28T05:21:57;5.83;;;2.30;;
74347;SDS011;62778;50.406;10.008;2023-02-28T05:22:53;6.13;;;2.45;;
74347;SDS011;62778;50.406;10.008;2023-02-28T05:23:48;6.07;;;2.20;;
74347;SDS011;62778;50.406;10.008;2023-02-28T05:24:43;5.88;;;1.92;;
74347;SDS011;62778;50.406;10.008;2023-02-28T05:25:39;5.83;;;2.10;;
74347;SDS011;62778;50.406;10.008;2023-02-28T05:26:35;6.20;;;2.30;;
74347;SDS011;62778;50.406;10.008;2023-02-28T05:27:32;4.80;;;2.15;;
74347;SDS011;62778;50.406;10.008;2023-02-28T05:28:27;5.07;;;2.20;;
74347;SDS011;62778;50.406;10.008;2023-02-28T05:29:22;5.10;;;2.20;;
74347;SDS011;62778;50.406;10.008;2023-02-28T05:30:18;6.10;;;2.35;;
74347;SDS011;62778;50.406;10.008;2023-02-28T05:31:13;6.10;;;2.60;;
74347;SDS011;62778;50.406;10.008;2023-02-28T05:32:09;4.77;;;2.20;;
74347;SDS011;62778;50.406;10.008;2023-02-28T05:33:05;5.22;;;2.40;;
74347;SDS011;62778;50.406;10.008;2023-02-28T05:34:01;5.65;;;2.63;;
74347;SDS011;62778;50.406;10.008;2023-02-28T05:34:59;5.83;;;2.80;;
74347;SDS011;62778;50.406;10.008;2023-02-28T05:35:54;5.05;;;2.10;;
74347;SDS011;62778;50.406;10.008;2023-02-28T05:36:49;5.47;;;1.90;;
74347;SDS011;62778;50.406;10.008;2023-02-28T05:37:44;6.07;;;2.60;;
74347;SDS011;62778;50.406;10.008;2023-02-28T05:38:40;6.27;;;2.57;;
74347;SDS011;62778;50.406;10.008;2023-02-28T05:39:35;5.93;;;2.35;;
74347;SDS011;62778;50.406;10.008;2023-02-28T05:40:31;5.40;;;2.57;;
74347;SDS011;62778;50.406;10.008;2023-02-28T05:41:26;5.83;;;2.50;;
74347;SDS011;62778;50.406;10.008;2023-02-28T05:42:21;5.60;;;2.50;;
74347;SDS011;62778;50.406;10.008;2023-02-28T05:43:17;6.40;;;2.60;;
74347;SDS011;62778;50.406;10.008;2023-02-28T05:44:12;5.70;;;2.37;;
74347;SDS011;62778;50.406;10.008;2023-02-28T05:45:08;5.83;;;2.60;;
74347;SDS011;62778;50.406;10.008;2023-02-28T05:46:07;6.35;;;2.25;;
74347;SDS011;62778;50.406;10.008;2023-02-28T05:47:03;5.97;;;2.30;;
74347;SDS011;62778;50.406;10.008;2023-02-28T05:47:59;5.40;;;2.20;;
74347;SDS011;62778;50.406;10.008;2023-02-28T05:48:54;7.37;;;2.60;;
74347;SDS011;62778;50.406;10.008;2023-02-28T05:49:51;6.25;;;2.75;;
74347;SDS011;62778;50.406;10.008;2023-02-28T05:50:49;5.97;;;2.47;;
74347;SDS011;62778;50.406;10.008;2023-02-28T05:51:44;6.38;;;2.88;;
74347;SDS011;62778;50.406;10.008;2023-02-28T05:52:39;5.63;;;2.50;;
74347;SDS011;62778;50.406;10.008;2023-02-28T05:53:35;5.20;;;2.42;;
74347;SDS011;62778;50.406;10.008;2023-02-28T05:54:31;5.75;;;2.50;;
74347;SDS011;62778;50.406;10.008;2023-02-28T05:55:26;6.40;;;2.67;;
74347;SDS011;62778;50.406;10.008;2023-02-28T05:56:21;6.83;;;2.77;;
74347;SDS011;62778;50.406;10.008;2023-02-28T05:57:17;6.43;;;2.87;;
74347;SDS011;62778;50.406;10.008;2023-02-28T05:58:12;5.93;;;2.40;;
74347;SDS011;62778;50.406;10.008;2023-02-28T05:59:08;6.60;;;2.90;;
74347;SDS011;62778;50.406;10.008;2023-02-28T06:00:03;6.33;;;2.90;;
74347;SDS011;62778;50.406;10.008;2023-02-28T06:01:00;7.00;;;3.05;;
74347;SDS011;62778;50.406;10.008;2023-02-28T06:01:56;5.72;;;2.85;;
74347;SDS011;62778;50.406;10.008;2023-02-28T06:02:51;6.60;;;2.70;;
74347;SDS011;62778;50.406;10.008;2023-02-28T06:03:51;5.85;;;3.17;;
74347;SDS011;62778;50.406;10.008;2023-02-28T06:04:46;6.05;;;2.88;;
74347;SDS011;62778;50.406;10.008;2023-02-28T06:05:42;6.57;;;2.90;;
74347;SDS011;62778;50.406;10.008;2023-02-28T06:06:37;6.57;;;3.30;;
74347;SDS011;62778;50.406;10.008;2023-02-28T06:07:34;7.63;;;3.05;;
74347;SDS011;62778;50.406;10.008;2023-02-28T06:08:29;7.13;;;3.50;;
74347;SDS011;62778;50.406;10.008;2023-02-28T06:09:24;7.13;;;3.50;;
74347;SDS011;62778;50.406;10.008;2023-02-28T06:10:20;7.05;;;3.35;;
74347;SDS011;62778;50.406;10.008;2023-02-28T06:11:15;7.53;;;3.43;;
74347;SDS011;62778;50.406;10.008;2023-02-28T06:12:10;7.20;;;3.60;;
74347;SDS011;62778;50.406;10.008;2023-02-28T06:13:06;6.43;;;2.97;;
74347;SDS011;62778;50.406;10.008;2023-02-28T06:14:02;7.00;;;3.45;;